Time;durP1;ratioP1;P1;durP2;ratioP2;P2;SDS_P1;SDS_P2;PMS_P1;PMS_P2;Temp;Humidity;BMP_temperature;BMP_pressure;BME280_temperature;BME280_humidity;BME280_pressure;Samples;Min_cycle;Max_cycle;Signal;HPM_P1;HPM_P2
2023/05/21 00:01:38;;;;;;;8.55;6.63;;;;;;;11.92;100.00;101903.03;5015761;28;20034;-45
2023/05/21 00:04:05;;;;;;;8.40;6.45;;;;;;;11.58;100.00;101845.69;5015822;28;20038;-42
2023/05/21 00:06:31;;;;;;;7.88;6.82;;;;;;;11.89;100.00;101896.06;5015946;28;20061;-44
2023/05/21 00:08:56;;;;;;;9.35;7.53;;;;;;;11.85;100.00;101894.38;5014675;28;20033;-50
2023/05/21 00:11:22;;;;;;;8.90;6.50;;;;;;;11.46;100.00;101834.50;5015800;28;20461;-42
2023/05/21 00:13:48;;;;;;;7.43;6.72;;;;;;;11.59;100.00;101857.94;5015210;28;20541;-42
2023/05/21 00:16:13;;;;;;;7.80;6.97;;;;;;;11.85;100.00;101895.25;5014689;28;20137;-45
2023/05/21 00:18:38;;;;;;;10.65;7.40;;;;;;;11.85;100.00;101903.16;5014527;28;20034;-46
2023/05/21 00:21:04;;;;;;;10.55;6.85;;;;;;;11.83;100.00;101889.13;5015760;28;20088;-45
2023/05/21 00:23:31;;;;;;;9.15;7.35;;;;;;;11.84;100.00;101892.66;5016002;28;20196;-46
2023/05/21 00:25:57;;;;;;;8.75;7.85;;;;;;;11.78;100.00;101885.72;5015848;28;20041;-42
2023/05/21 00:28:23;;;;;;;14.30;7.10;;;;;;;11.69;100.00;101872.72;5015735;28;20091;-45
2023/05/21 00:30:48;;;;;;;8.52;6.88;;;;;;;11.48;100.00;101837.97;5015874;28;20445;-43
2023/05/21 00:33:14;;;;;;;9.52;7.25;;;;;;;11.72;100.00;101877.06;5014611;28;20034;-43
2023/05/21 00:35:40;;;;;;;8.77;6.75;;;;;;;11.40;100.00;101810.91;5015709;28;20034;-42
2023/05/21 00:38:06;;;;;;;8.40;6.93;;;;;;;11.70;100.00;101863.91;5015673;28;20401;-43
2023/05/21 00:40:31;;;;;;;8.25;6.50;;;;;;;11.70;100.00;101858.63;5032521;28;20508;-43
2023/05/21 00:42:57;;;;;;;9.50;6.65;;;;;;;11.74;100.00;101865.59;5017506;28;20029;-47
2023/05/21 00:45:24;;;;;;;11.52;7.03;;;;;;;11.73;100.00;101857.72;5035124;28;20030;-46
2023/05/21 00:47:53;;;;;;;8.00;6.63;;;;;;;11.75;100.00;101858.53;5035289;28;20048;-47
2023/05/21 00:50:19;;;;;;;8.38;7.53;;;;;;;11.85;100.00;101866.22;5034126;28;20507;-45
2023/05/21 00:52:44;;;;;;;8.32;6.97;;;;;;;11.65;100.00;101827.94;5033723;28;20045;-46
2023/05/21 00:55:10;;;;;;;8.27;6.72;;;;;;;11.60;100.00;101801.69;5034917;28;20084;-44
2023/05/21 00:57:36;;;;;;;7.57;6.53;;;;;;;11.96;100.00;101859.84;5032960;28;20064;-44
2023/05/21 01:00:03;;;;;;;7.63;6.30;;;;;;;12.01;100.00;101874.69;5035313;28;20465;-45
2023/05/21 01:02:31;;;;;;;7.40;6.68;;;;;;;12.07;100.00;101863.13;5034590;28;20045;-46
2023/05/21 01:04:59;;;;;;;8.13;7.07;;;;;;;12.04;100.00;101868.47;5033619;28;20083;-46
2023/05/21 01:07:24;;;;;;;9.70;6.85;;;;;;;11.67;100.00;101807.69;5034714;28;20034;-43
2023/05/21 01:09:49;;;;;;;9.23;7.07;;;;;;;12.06;100.00;101862.25;5033526;28;20041;-46
2023/05/21 01:12:15;;;;;;;9.73;6.45;;;;;;;12.06;100.00;101866.66;5034513;28;20033;-44
2023/05/21 01:14:40;;;;;;;11.48;7.35;;;;;;;12.06;100.00;101867.53;5032006;28;20447;-43
2023/05/21 01:17:09;;;;;;;7.75;6.95;;;;;;;11.40;100.00;101752.91;5033588;28;20033;-43
2023/05/21 01:19:35;;;;;;;13.13;7.10;;;;;;;12.01;100.00;101865.91;5034702;28;20029;-43
2023/05/21 01:22:03;;;;;;;8.13;7.25;;;;;;;11.97;100.00;101849.25;5017066;28;20043;-41
2023/05/21 01:24:29;;;;;;;11.75;7.63;;;;;;;12.00;100.00;101858.88;5034307;28;20056;-46
2023/05/21 01:26:54;;;;;;;8.23;7.40;;;;;;;11.72;100.00;101814.66;5034372;28;20436;-44
2023/05/21 01:29:20;;;;;;;9.70;7.82;;;;;;;11.73;100.00;101824.28;5033494;28;20093;-45
2023/05/21 01:31:55;;;;;;;10.88;7.47;;;;;;;11.88;100.00;101856.53;5032503;28;20129;-44
2023/05/21 01:34:24;;;;;;;13.27;8.30;;;;;;;11.87;100.00;101852.13;5033823;28;20037;-45
2023/05/21 01:36:56;;;;;;;9.48;8.10;;;;;;;11.86;100.00;101856.53;5033123;28;20033;-45
2023/05/21 01:39:35;;;;;;;12.15;8.65;;;;;;;11.91;100.00;101859.09;5033534;28;20029;-43
2023/05/21 01:42:02;;;;;;;10.48;7.75;;;;;;;11.53;100.00;101781.59;5032575;28;20021;-47
2023/05/21 01:44:28;;;;;;;10.20;8.48;;;;;;;11.95;100.00;101852.84;5032835;28;20064;-42
2023/05/21 01:46:55;;;;;;;11.63;8.13;;;;;;;11.61;100.00;101789.38;5031291;28;20066;-46
2023/05/21 01:49:20;;;;;;;8.63;7.72;;;;;;;12.02;100.00;101857.97;5032610;28;20025;-44
2023/05/21 01:51:47;;;;;;;12.68;7.13;;;;;;;12.07;100.00;101855.22;5032353;28;20143;-44
2023/05/21 01:54:13;;;;;;;8.75;7.70;;;;;;;11.76;100.00;101783.81;5033804;28;20432;-42
2023/05/21 01:56:38;;;;;;;8.90;7.63;;;;;;;12.25;100.00;101860.06;5034048;28;20036;-43
2023/05/21 01:59:04;;;;;;;10.73;8.30;;;;;;;12.29;100.00;101861.72;5033887;28;20076;-44
2023/05/21 02:01:30;;;;;;;8.20;7.38;;;;;;;12.35;100.00;101846.59;5030690;28;20036;-45
2023/05/21 02:03:56;;;;;;;10.43;8.10;;;;;;;12.11;100.00;101797.03;5033788;28;20033;-44
2023/05/21 02:06:22;;;;;;;8.85;7.55;;;;;;;12.13;100.00;101791.72;5032276;28;20116;-45
2023/05/21 02:08:47;;;;;;;9.75;7.93;;;;;;;12.37;100.00;101823.66;5033599;28;20079;-45
2023/05/21 02:11:12;;;;;;;8.82;7.93;;;;;;;12.20;100.00;101777.50;5033717;28;20385;-43
2023/05/21 02:13:41;;;;;;;9.73;7.28;;;;;;;12.57;100.00;101835.53;5027481;28;20487;-42
2023/05/21 02:16:10;;;;;;;8.93;7.82;;;;;;;12.63;100.00;101833.63;5031262;28;20061;-43
2023/05/21 02:18:37;;;;;;;9.70;8.20;;;;;;;12.61;100.00;101832.75;5033405;28;20034;-42
2023/05/21 02:21:02;;;;;;;8.18;7.38;;;;;;;12.72;100.00;101837.81;5033315;28;20091;-44
2023/05/21 02:23:28;;;;;;;8.70;7.68;;;;;;;12.45;100.00;101790.94;5032998;28;20077;-46
2023/05/21 02:25:53;;;;;;;10.00;7.50;;;;;;;12.81;100.00;101848.13;5033565;28;20064;-45
2023/05/21 02:28:20;;;;;;;8.80;7.95;;;;;;;12.84;100.00;101846.25;5033369;28;20061;-45
2023/05/21 02:30:45;;;;;;;8.10;7.03;;;;;;;12.80;100.00;101833.19;5031620;28;20037;-43
2023/05/21 02:33:13;;;;;;;9.02;7.38;;;;;;;12.95;100.00;101852.16;5032907;28;20045;-44
2023/05/21 02:35:38;;;;;;;9.80;7.22;;;;;;;12.95;100.00;101846.00;5033372;28;20121;-43
2023/05/21 02:38:04;;;;;;;8.07;7.00;;;;;;;12.90;100.00;101827.59;5031943;28;20057;-51
2023/05/21 02:40:29;;;;;;;8.98;7.63;;;;;;;12.93;100.00;101830.16;5031555;28;20091;-46
2023/05/21 02:42:54;;;;;;;8.23;7.30;;;;;;;13.04;100.00;101844.88;5033036;28;20065;-43
2023/05/21 02:45:20;;;;;;;9.77;7.40;;;;;;;12.69;100.00;101782.41;5032822;28;20034;-45
2023/05/21 02:47:45;;;;;;;9.73;7.47;;;;;;;12.96;100.00;101830.09;5031287;28;20033;-43
2023/05/21 02:50:12;;;;;;;9.73;8.25;;;;;;;13.02;100.00;101836.97;5032858;28;20446;-43
2023/05/21 02:52:38;;;;;;;8.95;7.95;;;;;;;13.08;100.00;101836.84;5032513;28;20112;-44
2023/05/21 02:55:03;;;;;;;8.48;7.57;;;;;;;13.09;100.00;101832.44;5031675;28;20061;-46
2023/05/21 02:57:28;;;;;;;10.63;8.48;;;;;;;13.16;100.00;101842.81;5032734;28;20034;-45
2023/05/21 02:59:54;;;;;;;8.38;7.47;;;;;;;13.11;100.00;101830.63;5031129;28;20045;-44
2023/05/21 03:02:19;;;;;;;9.73;6.75;;;;;;;13.10;100.00;101824.50;5032704;28;20049;-46
2023/05/21 03:04:45;;;;;;;8.93;8.02;;;;;;;12.90;100.00;101784.47;5031023;28;20042;-48
2023/05/21 03:07:13;;;;;;;8.88;8.05;;;;;;;13.26;100.00;101839.00;5031454;28;20120;-42
2023/05/21 03:09:40;;;;;;;8.88;7.65;;;;;;;12.88;100.00;101768.66;5032717;28;20033;-46
2023/05/21 03:12:05;;;;;;;11.07;8.43;;;;;;;13.25;100.00;101839.06;5032628;28;20117;-43
2023/05/21 03:14:31;;;;;;;7.80;6.97;;;;;;;13.27;100.00;101845.16;5032497;28;20124;-46
2023/05/21 03:16:57;;;;;;;9.00;7.68;;;;;;;13.25;100.00;101837.25;5032274;28;20120;-43
2023/05/21 03:19:23;;;;;;;11.00;8.18;;;;;;;13.28;100.00;101841.63;5031088;28;20528;-43
2023/05/21 03:21:49;;;;;;;11.15;8.00;;;;;;;13.17;100.00;101804.00;4992865;28;20103;-46
2023/05/21 03:24:15;;;;;;;9.98;8.02;;;;;;;12.96;100.00;101773.72;4993351;28;20158;-45
2023/05/21 03:26:40;;;;;;;8.77;7.88;;;;;;;13.30;100.00;101830.09;4990933;28;20068;-49
2023/05/21 03:29:05;;;;;;;8.18;7.32;;;;;;;13.16;100.00;101803.19;4993113;28;20038;-47
2023/05/21 03:31:30;;;;;;;9.98;8.07;;;;;;;12.92;100.00;101759.75;5008529;28;20049;-48
2023/05/21 03:33:56;;;;;;;9.75;7.90;;;;;;;13.32;100.00;101840.63;4992617;28;20073;-50
2023/05/21 03:36:21;;;;;;;10.70;7.85;;;;;;;13.32;100.00;101830.03;4991730;28;20038;-46
2023/05/21 03:38:46;;;;;;;12.05;7.82;;;;;;;12.94;100.00;101773.78;5015109;28;20041;-45
2023/05/21 03:41:12;;;;;;;8.90;8.00;;;;;;;13.27;100.00;101822.25;5032219;28;20087;-49
2023/05/21 03:43:37;;;;;;;9.30;7.78;;;;;;;13.10;100.00;101795.41;5032270;28;20116;-46
2023/05/21 03:46:03;;;;;;;11.57;8.90;;;;;;;12.99;100.00;101766.56;5032252;28;20037;-44
2023/05/21 03:48:28;;;;;;;10.65;8.10;;;;;;;13.30;100.00;101824.81;5032052;28;20037;-51
2023/05/21 03:50:54;;;;;;;10.40;8.23;;;;;;;13.27;100.00;101831.94;5032284;28;20469;-45
2023/05/21 03:53:19;;;;;;;8.98;7.82;;;;;;;12.91;100.00;101755.34;5031884;28;20481;-44
2023/05/21 03:55:46;;;;;;;10.13;8.27;;;;;;;13.26;100.00;101825.78;5030619;28;20116;-44
2023/05/21 03:58:11;;;;;;;9.40;8.45;;;;;;;13.26;100.00;101830.19;5032129;28;20037;-44
2023/05/21 04:00:36;;;;;;;8.98;8.05;;;;;;;13.08;100.00;101810.44;5031767;28;20099;-47
2023/05/21 04:03:05;;;;;;;9.07;8.18;;;;;;;13.26;100.00;101828.44;5031262;28;20051;-44
2023/05/21 04:05:31;;;;;;;14.48;8.98;;;;;;;13.28;100.00;101829.25;5031007;28;20033;-48
2023/05/21 04:07:57;;;;;;;12.80;9.05;;;;;;;13.29;100.00;101835.41;5032177;28;20092;-49
2023/05/21 04:10:23;;;;;;;10.82;9.32;;;;;;;12.96;100.00;101774.59;5029229;28;20479;-46
2023/05/21 04:12:51;;;;;;;10.13;8.93;;;;;;;12.93;100.00;101765.88;5031931;28;20048;-47
2023/05/21 04:15:17;;;;;;;11.40;8.68;;;;;;;13.31;100.00;101834.44;5030784;28;20072;-44
2023/05/21 04:17:44;;;;;;;8.95;8.05;;;;;;;13.32;100.00;101830.03;5031615;28;20533;-46
2023/05/21 04:20:15;;;;;;;10.02;8.77;;;;;;;12.99;100.00;101785.06;5031682;28;20381;-43
2023/05/21 04:22:42;;;;;;;9.45;7.72;;;;;;;13.31;100.00;101841.53;5030403;28;20088;-45
2023/05/21 04:25:08;;;;;;;10.63;8.20;;;;;;;12.98;100.00;101778.09;5030471;28;20050;-47
2023/05/21 04:27:34;;;;;;;8.88;7.90;;;;;;;13.34;100.00;101839.66;5028779;28;20053;-44
2023/05/21 04:29:59;;;;;;;9.68;7.90;;;;;;;12.97;100.00;101776.34;5031522;28;20026;-43
2023/05/21 04:32:24;;;;;;;8.77;7.82;;;;;;;13.32;100.00;101837.97;5031604;28;20124;-43
2023/05/21 04:34:50;;;;;;;9.15;8.27;;;;;;;13.35;100.00;101837.88;5030650;28;20052;-44
2023/05/21 04:37:18;;;;;;;8.90;7.90;;;;;;;13.26;100.00;101820.50;5032379;28;20033;-43
2023/05/21 04:39:43;;;;;;;8.63;7.82;;;;;;;13.33;100.00;101823.84;5035253;28;20029;-45
2023/05/21 04:42:11;;;;;;;9.38;8.10;;;;;;;13.29;100.00;101815.13;5033737;28;20107;-45
2023/05/21 04:44:39;;;;;;;9.82;8.27;;;;;;;13.34;100.00;101826.44;5035127;28;20500;-43
2023/05/21 04:47:05;;;;;;;9.32;7.82;;;;;;;13.36;100.00;101827.28;5035307;28;20043;-42
2023/05/21 04:49:30;;;;;;;9.63;7.63;;;;;;;13.43;100.00;101833.25;5034069;28;20034;-41
2023/05/21 04:51:55;;;;;;;11.43;8.20;;;;;;;13.47;100.00;101834.91;5035131;28;20025;-42
2023/05/21 04:54:21;;;;;;;11.23;8.05;;;;;;;13.53;100.00;101845.31;5034951;28;20042;-44
2023/05/21 04:56:46;;;;;;;9.05;8.13;;;;;;;13.59;100.00;101831.03;5034775;28;20034;-45
2023/05/21 04:59:13;;;;;;;8.70;7.82;;;;;;;13.65;100.00;101831.72;5033284;28;20120;-46
2023/05/21 05:01:38;;;;;;;9.55;8.13;;;;;;;13.66;100.00;101838.72;5034938;28;20048;-47
2023/05/21 05:04:04;;;;;;;9.35;7.93;;;;;;;13.75;100.00;101834.94;5034837;28;20029;-44
2023/05/21 05:06:29;;;;;;;8.13;7.15;;;;;;;13.75;100.00;101841.13;5033378;28;20145;-46
2023/05/21 05:08:55;;;;;;;11.00;8.85;;;;;;;13.74;100.00;101820.00;5033643;28;20058;-46
2023/05/21 05:11:21;;;;;;;9.75;7.85;;;;;;;13.12;100.00;101705.47;5034584;28;20029;-44
2023/05/21 05:13:46;;;;;;;8.35;7.57;;;;;;;13.50;100.00;101760.75;5032365;28;20125;-47
2023/05/21 05:16:13;;;;;;;8.50;7.72;;;;;;;13.89;100.00;101822.19;5034436;28;20045;-46
2023/05/21 05:18:38;;;;;;;9.30;7.88;;;;;;;13.69;100.00;101774.31;5034635;28;20130;-46
2023/05/21 05:21:04;;;;;;;8.40;7.63;;;;;;;13.72;100.00;101771.56;5034464;28;20124;-43
2023/05/21 05:23:29;;;;;;;8.95;8.05;;;;;;;13.94;100.00;101828.22;5033887;28;20083;-46
2023/05/21 05:25:55;;;;;;;12.73;7.97;;;;;;;13.70;100.00;101761.00;5034409;28;20099;-43
2023/05/21 05:28:20;;;;;;;8.77;7.88;;;;;;;14.01;100.00;101813.84;5034478;28;20072;-43
2023/05/21 05:30:46;;;;;;;8.35;6.85;;;;;;;13.97;100.00;101813.09;5032446;28;20120;-42
2023/05/21 05:33:11;;;;;;;8.27;7.55;;;;;;;13.91;100.00;101780.66;5034282;28;20036;-42
2023/05/21 05:35:37;;;;;;;9.30;7.95;;;;;;;14.07;100.00;101811.88;5033955;28;20468;-44
2023/05/21 05:38:02;;;;;;;8.70;6.97;;;;;;;14.16;100.00;101815.16;5034484;28;20048;-47
2023/05/21 05:40:28;;;;;;;9.30;7.35;;;;;;;14.17;100.00;101808.94;5034070;28;20083;-43
2023/05/21 05:42:53;;;;;;;8.50;7.55;;;;;;;14.17;100.00;101808.94;5033728;28;20422;-48
2023/05/21 05:45:19;;;;;;;8.93;7.25;;;;;;;14.20;100.00;101800.91;5033924;28;20120;-47
2023/05/21 05:47:45;;;;;;;9.48;8.30;;;;;;;13.95;100.00;101763.78;5031270;28;20033;-44
2023/05/21 05:50:10;;;;;;;9.02;7.20;;;;;;;13.80;100.00;101722.78;5033003;28;20035;-46
2023/05/21 05:52:36;;;;;;;8.65;7.70;;;;;;;14.17;100.00;101793.06;5033446;28;20432;-46
2023/05/21 05:55:01;;;;;;;7.60;6.78;;;;;;;13.59;100.00;101688.19;5016627;28;20524;-47
2023/05/21 05:57:26;;;;;;;8.27;7.47;;;;;;;14.29;100.00;101801.50;5012732;28;20038;-48
2023/05/21 05:59:52;;;;;;;7.43;6.75;;;;;;;14.33;100.00;101800.47;5013743;28;20417;-44
2023/05/21 06:02:17;;;;;;;7.82;7.10;;;;;;;14.28;100.00;101797.09;5013918;28;20520;-43
2023/05/21 06:04:42;;;;;;;7.90;7.10;;;;;;;14.30;100.00;101800.56;5031586;28;20511;-46
2023/05/21 06:07:09;;;;;;;8.55;7.60;;;;;;;14.36;100.00;101803.03;5033434;28;20400;-49
2023/05/21 06:09:34;;;;;;;9.10;7.57;;;;;;;14.37;100.00;101817.16;5018678;28;20038;-43
2023/05/21 06:12:00;;;;;;;10.45;8.07;;;;;;;14.49;100.00;101809.69;5013605;28;20038;-44
2023/05/21 06:14:25;;;;;;;8.43;7.63;;;;;;;14.63;100.00;101809.22;5013547;28;20033;-43
2023/05/21 06:16:50;;;;;;;7.68;6.93;;;;;;;14.79;100.00;101814.88;5012722;28;20056;-44
2023/05/21 06:19:16;;;;;;;8.93;8.02;;;;;;;14.80;100.00;101817.44;5024301;28;20037;-43
2023/05/21 06:21:41;;;;;;;8.18;7.32;;;;;;;14.77;100.00;101824.66;5033444;28;20124;-44
2023/05/21 06:24:06;;;;;;;8.70;7.90;;;;;;;14.89;100.00;101818.91;5032018;28;20477;-42
2023/05/21 06:26:32;;;;;;;7.93;7.22;;;;;;;14.94;100.00;101820.50;5018645;28;20030;-45
2023/05/21 06:28:57;;;;;;;10.20;7.50;;;;;;;15.03;100.00;101817.50;5013009;28;20124;-44
2023/05/21 06:31:23;;;;;;;8.70;7.80;;;;;;;14.74;100.00;101764.66;5012161;28;20076;-44
2023/05/21 06:33:48;;;;;;;8.40;7.53;;;;;;;14.87;100.00;101807.50;5013364;28;20369;-45
2023/05/21 06:36:15;;;;;;;8.18;7.38;;;;;;;15.06;100.00;101816.56;5014176;28;20061;-43
2023/05/21 06:38:41;;;;;;;8.40;7.63;;;;;;;14.72;100.00;101755.91;5013080;28;20096;-43
2023/05/21 06:41:06;;;;;;;8.23;7.43;;;;;;;15.30;100.00;101820.09;5011111;28;20061;-46
2023/05/21 06:43:32;;;;;;;8.13;6.78;;;;;;;15.41;100.00;101826.75;5011093;28;20486;-42
2023/05/21 06:45:57;;;;;;;8.50;7.60;;;;;;;15.49;100.00;101826.50;5012220;28;20036;-46
2023/05/21 06:48:22;;;;;;;7.97;7.25;;;;;;;15.50;100.00;101823.78;5012471;28;20065;-45
2023/05/21 06:50:48;;;;;;;8.23;7.50;;;;;;;15.56;100.00;101823.56;5016383;28;20037;-45
2023/05/21 06:53:15;;;;;;;7.60;6.78;;;;;;;15.67;100.00;101826.66;5017031;28;20129;-48
2023/05/21 06:55:43;;;;;;;7.10;6.38;;;;;;;15.62;100.00;101826.00;5011136;28;20122;-45
2023/05/21 06:58:09;;;;;;;8.35;6.85;;;;;;;15.15;100.00;101756.09;5012161;28;20049;-44
2023/05/21 07:00:35;;;;;;;7.60;6.95;;;;;;;15.59;100.00;101826.09;5012058;28;20061;-47
2023/05/21 07:03:00;;;;;;;9.05;7.57;;;;;;;15.67;100.00;101844.41;5011808;28;20073;-44
2023/05/21 07:05:25;;;;;;;6.93;6.22;;;;;;;15.28;100.00;101784.81;5012718;28;20038;-47
2023/05/21 07:07:51;;;;;;;7.50;6.65;;;;;;;15.23;100.00;101777.88;5012956;28;20424;-50
2023/05/21 07:10:16;;;;;;;7.45;6.65;;;;;;;15.58;100.00;101840.31;5012815;28;20474;-45
2023/05/21 07:12:41;;;;;;;7.47;6.60;;;;;;;15.61;100.00;101834.03;5012304;28;20639;-48
2023/05/21 07:15:08;;;;;;;7.53;6.72;;;;;;;15.34;100.00;101780.16;5012866;28;20037;-43
2023/05/21 07:17:33;;;;;;;7.47;5.97;;;;;;;15.78;100.00;101858.13;5012661;28;20038;-43
2023/05/21 07:19:58;;;;;;;6.80;5.68;;;;;;;15.83;100.00;101844.69;5011451;28;20168;-45
2023/05/21 07:22:23;;;;;;;8.82;6.47;;;;;;;15.43;100.00;101801.03;5012195;28;20135;-45
2023/05/21 07:24:49;;;;;;;8.90;7.15;;;;;;;15.50;100.00;101801.72;5015623;28;20050;-43
2023/05/21 07:27:14;;;;;;;6.90;6.30;;;;;;;15.50;100.00;101799.06;5010771;28;20041;-45
2023/05/21 07:29:39;;;;;;;7.22;6.10;;;;;;;15.94;100.00;101858.41;5011208;28;20600;-45
2023/05/21 07:32:05;;;;;;;7.50;6.72;;;;;;;16.00;100.00;101859.03;5010863;28;20038;-47
2023/05/21 07:34:31;;;;;;;7.38;6.15;;;;;;;15.92;100.00;101837.22;5010586;28;20042;-42
2023/05/21 07:36:57;;;;;;;6.78;6.05;;;;;;;15.82;100.00;101814.59;5012295;28;20099;-46
2023/05/21 07:39:22;;;;;;;7.20;6.50;;;;;;;15.96;100.00;101840.66;5012147;28;20034;-47
2023/05/21 07:41:47;;;;;;;8.05;6.47;;;;;;;15.54;100.00;101790.03;5011956;28;20033;-45
2023/05/21 07:44:13;;;;;;;8.90;7.10;;;;;;;15.70;100.00;101801.81;5011298;28;20034;-43
2023/05/21 07:46:38;;;;;;;6.88;6.18;;;;;;;15.99;100.00;101833.44;5010846;28;20049;-45
2023/05/21 07:49:03;;;;;;;7.45;6.65;;;;;;;15.99;100.00;101838.75;5012048;28;20037;-51
2023/05/21 07:51:29;;;;;;;8.13;6.35;;;;;;;16.23;100.00;101852.81;5012158;28;20045;-46
2023/05/21 07:53:55;;;;;;;8.15;6.35;;;;;;;16.06;100.00;101783.56;5011980;28;20048;-46
2023/05/21 07:56:20;;;;;;;6.72;5.93;;;;;;;16.03;100.00;101786.34;5012200;28;20030;-45
2023/05/21 07:58:46;;;;;;;10.60;7.15;;;;;;;16.08;100.00;101800.34;5012292;28;20339;-45
2023/05/21 08:01:11;;;;;;;6.40;5.80;;;;;;;16.19;100.00;101845.91;5012462;28;20081;-43
2023/05/21 08:03:37;;;;;;;7.35;6.43;;;;;;;16.30;100.00;101867.59;5012248;28;20052;-47
2023/05/21 08:06:02;;;;;;;7.47;6.75;;;;;;;16.22;100.00;101851.97;5012230;28;20148;-42
2023/05/21 08:08:28;;;;;;;10.68;7.40;;;;;;;16.12;100.00;101828.47;5011885;28;20500;-48
2023/05/21 08:10:54;;;;;;;7.90;6.93;;;;;;;15.93;100.00;101785.00;5012123;28;20026;-44
2023/05/21 08:13:19;;;;;;;7.97;6.72;;;;;;;16.24;100.00;101850.13;5013520;28;20386;-45
2023/05/21 08:15:45;;;;;;;7.95;7.15;;;;;;;16.19;100.00;101814.91;5014665;28;20076;-43
2023/05/21 08:18:10;;;;;;;7.85;6.25;;;;;;;16.25;100.00;101781.91;5016120;28;20029;-46
2023/05/21 08:20:36;;;;;;;7.68;6.93;;;;;;;16.67;100.00;101849.25;5015868;28;20034;-45
2023/05/21 08:23:01;;;;;;;9.40;7.80;;;;;;;16.46;100.00;101850.09;5014258;28;20030;-42
2023/05/21 08:25:27;;;;;;;7.65;6.60;;;;;;;16.42;100.00;101856.50;5015408;28;20086;-46
2023/05/21 08:27:52;;;;;;;10.70;7.32;;;;;;;16.51;100.00;101853.47;5014627;28;20429;-44
2023/05/21 08:30:18;;;;;;;7.20;6.50;;;;;;;16.67;100.00;101854.56;5015634;28;20034;-49
2023/05/21 08:32:43;;;;;;;7.32;6.63;;;;;;;16.55;100.00;101857.75;5015207;28;20053;-48
2023/05/21 08:35:08;;;;;;;7.18;6.13;;;;;;;16.54;100.00;101850.72;5015223;28;20092;-44
2023/05/21 08:37:34;;;;;;;7.45;6.22;;;;;;;16.61;100.00;101852.16;5014489;28;20049;-44
2023/05/21 08:39:59;;;;;;;8.45;6.82;;;;;;;16.11;100.00;101782.44;5015777;28;20120;-44
2023/05/21 08:42:31;;;;;;;9.68;6.75;;;;;;;16.74;100.00;101852.53;5015138;28;20076;-43
2023/05/21 08:44:57;;;;;;;;;;;;;;;16.71;100.00;101850.00;5015907;28;20103;-44
2023/05/21 08:47:25;;;;;;;6.55;5.95;;;;;;;16.86;100.00;101850.25;5014056;28;20415;-46
2023/05/21 08:49:51;;;;;;;7.45;6.50;;;;;;;16.64;100.00;101809.50;5015206;28;20117;-45
2023/05/21 08:52:17;;;;;;;8.10;6.25;;;;;;;17.20;100.00;101854.97;5014161;28;20473;-44
2023/05/21 08:54:43;;;;;;;6.55;5.78;;;;;;;17.44;100.00;101834.38;5015126;28;20049;-42
2023/05/21 08:57:08;;;;;;;9.55;6.35;;;;;;;17.81;100.00;101854.88;5015066;28;20045;-44
2023/05/21 08:59:35;;;;;;;6.75;6.13;;;;;;;17.80;100.00;101831.88;5015187;28;20063;-41
2023/05/21 09:02:02;;;;;;;7.63;5.50;;;;;;;17.69;100.00;101796.88;5015172;28;20116;-45
2023/05/21 09:04:27;;;;;;;6.65;5.93;;;;;;;17.86;100.00;101831.59;5013849;28;20030;-46
2023/05/21 09:06:53;;;;;;;6.60;5.25;;;;;;;18.40;100.00;101836.94;5014062;28;20056;-45
2023/05/21 09:09:33;;;;;;;10.23;5.55;;;;;;;18.64;100.00;101850.88;5013592;28;20034;-44
2023/05/21 09:11:58;;;;;;;7.13;5.60;;;;;;;18.71;100.00;101856.78;5015168;28;20038;-46
2023/05/21 09:14:25;;;;;;;7.88;5.00;;;;;;;18.57;100.00;101744.59;5014951;28;20125;-51
2023/05/21 09:16:50;;;;;;;5.95;5.20;;;;;;;19.69;100.00;101858.75;5014975;28;20033;-45
2023/05/21 09:19:16;;;;;;;9.45;5.32;;;;;;;19.55;100.00;101857.72;5014946;28;20092;-45
2023/05/21 09:21:41;;;;;;;9.15;5.10;;;;;;;19.47;100.00;101824.31;4997079;28;20065;-48
2023/05/21 09:24:08;;;;;;;5.20;4.70;;;;;;;20.08;100.00;101852.09;5013314;28;20502;-45
2023/05/21 09:26:34;;;;;;;5.57;4.88;;;;;;;20.45;100.00;101840.22;5013287;28;20041;-42
2023/05/21 09:28:59;;;;;;;7.53;4.90;;;;;;;20.13;100.00;101785.00;5014746;28;20042;-46
2023/05/21 09:31:28;;;;;;;5.32;4.78;;;;;;;21.20;100.00;101848.22;5013333;28;20030;-45
2023/05/21 09:33:54;;;;;;;5.38;4.88;;;;;;;20.44;100.00;101797.50;5014828;28;20045;-43
2023/05/21 09:36:20;;;;;;;6.32;4.93;;;;;;;20.68;100.00;101858.47;5014428;28;20041;-42
2023/05/21 09:38:50;;;;;;;6.07;5.15;;;;;;;20.00;100.00;101795.53;5013620;28;20487;-47
2023/05/21 09:41:16;;;;;;;5.57;5.05;;;;;;;19.64;100.00;101798.44;5013382;28;20087;-45
2023/05/21 09:43:45;;;;;;;5.65;5.05;;;;;;;20.12;100.00;101850.09;5014379;28;20026;-44
2023/05/21 09:46:10;;;;;;;6.25;4.90;;;;;;;20.16;100.00;101846.31;5009692;28;20520;-45
2023/05/21 09:48:40;;;;;;;5.75;4.30;;;;;;;20.80;100.00;101845.31;5013164;28;20124;-47
2023/05/21 09:51:24;;;;;;;6.70;5.17;;;;;;;21.34;100.00;101803.69;5011540;28;20436;-43
2023/05/21 09:53:56;;;;;;;6.10;5.45;;;;;;;20.91;100.00;101790.19;5011847;28;20359;-45
2023/05/21 09:56:27;;;;;;;7.15;5.90;;;;;;;20.16;100.00;101783.03;5013229;28;20057;-46
2023/05/21 09:58:54;;;;;;;7.20;5.45;;;;;;;19.60;100.00;101788.88;5014024;28;20479;-45
2023/05/21 10:01:20;;;;;;;6.80;5.50;;;;;;;19.89;100.00;101843.38;5011905;28;20034;-42
2023/05/21 10:03:48;;;;;;;7.88;5.78;;;;;;;19.69;100.00;101832.91;5013869;28;20053;-47
2023/05/21 10:06:14;;;;;;;8.82;5.97;;;;;;;19.23;100.00;101778.44;5013470;28;20030;-46
2023/05/21 10:08:42;;;;;;;9.38;5.88;;;;;;;19.32;100.00;101771.75;5013528;28;20041;-47
2023/05/21 10:11:07;;;;;;;5.72;5.22;;;;;;;20.06;100.00;101837.94;5013256;28;20108;-45
2023/05/21 10:13:38;;;;;;;5.18;4.68;;;;;;;20.46;100.00;101831.22;5011566;28;20168;-47
2023/05/21 10:16:04;;;;;;;6.60;5.70;;;;;;;20.12;100.00;101781.47;5011899;28;20436;-44
2023/05/21 10:18:31;;;;;;;6.32;5.18;;;;;;;20.30;100.00;101773.38;4992065;28;20440;-49
2023/05/21 10:20:56;;;;;;;6.00;5.28;;;;;;;20.69;100.00;101828.06;5010386;28;20026;-46
2023/05/21 10:23:22;;;;;;;8.95;5.68;;;;;;;20.56;100.00;101762.88;5012202;28;20499;-49
2023/05/21 10:25:48;;;;;;;5.95;5.40;;;;;;;20.59;100.00;101762.69;5008997;28;20128;-44
2023/05/21 10:28:16;;;;;;;5.95;5.35;;;;;;;20.80;100.00;101819.41;5018365;28;20067;-44
2023/05/21 10:30:42;;;;;;;8.40;5.47;;;;;;;20.38;100.00;101763.09;5023188;28;20032;-49
2023/05/21 10:33:08;;;;;;;6.35;5.70;;;;;;;20.23;100.00;101761.28;5013337;28;20078;-48
2023/05/21 10:35:33;;;;;;;7.22;5.70;;;;;;;20.28;100.00;101784.19;5014505;28;20492;-43
2023/05/21 10:38:02;;;;;;;6.63;5.10;;;;;;;21.22;100.00;101811.50;4998648;28;20034;-44
2023/05/21 10:40:28;;;;;;;9.13;5.65;;;;;;;21.74;100.00;101805.59;5004577;28;20030;-44
2023/05/21 10:43:25;;;;;;;5.95;5.43;;;;;;;21.81;100.00;101818.47;5012195;28;20103;-46
2023/05/21 10:46:24;;;;;;;6.47;4.78;;;;;;;22.02;100.00;101816.28;5000101;28;20117;-45
2023/05/21 10:49:12;;;;;;;5.50;4.88;;;;;;;22.75;100.00;101812.28;5011536;28;20049;-45
2023/05/21 10:51:48;;;;;;;6.80;6.00;;;;;;;22.42;100.00;101751.00;5010170;28;20025;-45
2023/05/21 10:54:37;;;;;;;6.80;6.10;;;;;;;22.84;100.00;101813.50;5012072;28;20117;-45
2023/05/21 10:57:39;;;;;;;6.90;5.60;;;;;;;23.64;100.00;101817.75;5015069;28;20571;-43
2023/05/21 11:00:06;;;;;;;8.52;5.90;;;;;;;24.26;100.00;101819.44;5031018;28;20036;-43
2023/05/21 11:02:32;;;;;;;8.82;6.22;;;;;;;24.61;100.00;101768.31;5031322;28;20693;-44
2023/05/21 11:04:59;;;;;;;6.55;5.93;;;;;;;24.40;100.00;101780.75;5032179;28;20064;-44
2023/05/21 11:07:55;;;;;;;8.98;5.78;;;;;;;24.59;100.00;101821.44;5032000;28;20112;-45
2023/05/21 11:10:31;;;;;;;7.28;5.97;;;;;;;23.57;100.00;101752.81;5032542;28;20037;-45
2023/05/21 11:13:07;;;;;;;7.32;6.40;;;;;;;23.11;100.00;101751.66;5032281;28;20133;-44
2023/05/21 11:15:57;;;;;;;8.32;6.90;;;;;;;23.03;100.00;101794.31;5030626;28;20024;-42